sensor_id;sensor_type;location;lat;lon;timestamp;pressure;altitude;pressure_sealevel;temperature;humidity
77207;BME280;66190;50.708;7.906;2023-05-07T00:00:08;96416.16;;;12.35;78.79
77207;BME280;66190;50.708;7.906;2023-05-07T00:02:34;96417.34;;;12.39;78.81
77207;BME280;66190;50.708;7.906;2023-05-07T00:05:01;96411.56;;;12.42;79.19
77207;BME280;66190;50.708;7.906;2023-05-07T00:07:27;96414.84;;;12.44;79.84
77207;BME280;66190;50.708;7.906;2023-05-07T00:09:53;96415.69;;;12.44;79.86
77207;BME280;66190;50.708;7.906;2023-05-07T00:12:18;96413.59;;;12.46;79.53
77207;BME280;66190;50.708;7.906;2023-05-07T00:14:44;96412.53;;;12.47;78.98
77207;BME280;66190;50.708;7.906;2023-05-07T00:17:09;96407.13;;;12.47;79.62
77207;BME280;66190;50.708;7.906;2023-05-07T00:19:34;96409.84;;;12.47;79.50
77207;BME280;66190;50.708;7.906;2023-05-07T00:22:00;96402.13;;;12.51;78.81
77207;BME280;66190;50.708;7.906;2023-05-07T00:24:25;96409.25;;;12.45;78.95
77207;BME280;66190;50.708;7.906;2023-05-07T00:26:51;96408.25;;;12.40;79.41
77207;BME280;66190;50.708;7.906;2023-05-07T00:29:17;96404.69;;;12.39;79.40
77207;BME280;66190;50.708;7.906;2023-05-07T00:31:43;96401.38;;;12.37;79.50
77207;BME280;66190;50.708;7.906;2023-05-07T00:34:08;96403.88;;;12.39;79.24
77207;BME280;66190;50.708;7.906;2023-05-07T00:36:34;96402.44;;;12.36;79.24
77207;BME280;66190;50.708;7.906;2023-05-07T00:39:00;96401.59;;;12.36;79.28
77207;BME280;66190;50.708;7.906;2023-05-07T00:41:26;96400.97;;;12.40;79.13
77207;BME280;66190;50.708;7.906;2023-05-07T00:43:51;96402.41;;;12.43;79.33
77207;BME280;66190;50.708;7.906;2023-05-07T00:46:19;96400.31;;;12.45;79.81
77207;BME280;66190;50.708;7.906;2023-05-07T00:48:45;96398.88;;;12.42;80.45
77207;BME280;66190;50.708;7.906;2023-05-07T00:51:10;96404.03;;;12.50;79.75
77207;BME280;66190;50.708;7.906;2023-05-07T00:53:36;96399.03;;;12.54;79.09
77207;BME280;66190;50.708;7.906;2023-05-07T00:56:02;96394.44;;;12.54;79.43
77207;BME280;66190;50.708;7.906;2023-05-07T00:58:28;96398.59;;;12.57;79.20
77207;BME280;66190;50.708;7.906;2023-05-07T01:00:53;96397.34;;;12.60;79.21
77207;BME280;66190;50.708;7.906;2023-05-07T01:03:19;96396.28;;;12.61;79.40
77207;BME280;66190;50.708;7.906;2023-05-07T01:05:45;96390.50;;;12.57;79.88
77207;BME280;66190;50.708;7.906;2023-05-07T01:08:13;96388.84;;;12.56;79.71
77207;BME280;66190;50.708;7.906;2023-05-07T01:10:40;96397.97;;;12.55;79.65
77207;BME280;66190;50.708;7.906;2023-05-07T01:13:09;96388.84;;;12.56;79.45
77207;BME280;66190;50.708;7.906;2023-05-07T01:15:35;96392.97;;;12.58;79.41
77207;BME280;66190;50.708;7.906;2023-05-07T01:18:01;96392.97;;;12.58;79.72
77207;BME280;66190;50.708;7.906;2023-05-07T01:20:27;96388.19;;;12.61;79.51
77207;BME280;66190;50.708;7.906;2023-05-07T01:22:53;96385.06;;;12.64;79.45
77207;BME280;66190;50.708;7.906;2023-05-07T01:25:18;96381.31;;;12.65;79.19
77207;BME280;66190;50.708;7.906;2023-05-07T01:27:44;96385.44;;;12.67;78.96
77207;BME280;66190;50.708;7.906;2023-05-07T01:30:10;96386.50;;;12.66;79.46
77207;BME280;66190;50.708;7.906;2023-05-07T01:32:43;96383.13;;;12.71;79.39
77207;BME280;66190;50.708;7.906;2023-05-07T01:35:11;96374.00;;;12.72;79.23
77207;BME280;66190;50.708;7.906;2023-05-07T01:37:38;96367.78;;;12.71;79.24
77207;BME280;66190;50.708;7.906;2023-05-07T01:40:05;96364.84;;;12.73;79.09
77207;BME280;66190;50.708;7.906;2023-05-07T01:42:31;96360.28;;;12.73;78.98
77207;BME280;66190;50.708;7.906;2023-05-07T01:44:57;96368.16;;;12.75;79.16
77207;BME280;66190;50.708;7.906;2023-05-07T01:47:22;96359.00;;;12.76;79.31
77207;BME280;66190;50.708;7.906;2023-05-07T01:49:48;96368.16;;;12.75;79.60
77207;BME280;66190;50.708;7.906;2023-05-07T01:52:13;96364.84;;;12.73;79.33
77207;BME280;66190;50.708;7.906;2023-05-07T01:54:39;96372.72;;;12.74;79.77
77207;BME280;66190;50.708;7.906;2023-05-07T01:57:04;96374.00;;;12.72;80.18
77207;BME280;66190;50.708;7.906;2023-05-07T01:59:30;96372.34;;;12.71;80.41
77207;BME280;66190;50.708;7.906;2023-05-07T02:01:55;96365.06;;;12.71;79.79
77207;BME280;66190;50.708;7.906;2023-05-07T02:04:20;96366.31;;;12.75;79.63
77207;BME280;66190;50.708;7.906;2023-05-07T02:06:46;96372.09;;;12.79;79.78
77207;BME280;66190;50.708;7.906;2023-05-07T02:09:13;96372.28;;;12.77;79.78
77207;BME280;66190;50.708;7.906;2023-05-07T02:11:40;96368.34;;;12.80;79.74
77207;BME280;66190;50.708;7.906;2023-05-07T02:14:05;96372.50;;;12.82;79.57
77207;BME280;66190;50.708;7.906;2023-05-07T02:16:31;96375.38;;;12.81;79.57
77207;BME280;66190;50.708;7.906;2023-05-07T02:18:56;96377.06;;;12.82;79.49
77207;BME280;66190;50.708;7.906;2023-05-07T02:21:21;96384.53;;;12.80;80.38
77207;BME280;66190;50.708;7.906;2023-05-07T02:23:47;96376.84;;;12.83;79.58
77207;BME280;66190;50.708;7.906;2023-05-07T02:26:12;96387.03;;;12.81;80.20
77207;BME280;66190;50.708;7.906;2023-05-07T02:28:37;96380.38;;;12.84;79.86
77207;BME280;66190;50.708;7.906;2023-05-07T02:31:03;96380.16;;;12.85;79.79
77207;BME280;66190;50.708;7.906;2023-05-07T02:33:29;96382.22;;;12.83;80.07
77207;BME280;66190;50.708;7.906;2023-05-07T02:35:55;96375.34;;;12.87;80.29
77207;BME280;66190;50.708;7.906;2023-05-07T02:38:20;96385.53;;;12.85;80.35
77207;BME280;66190;50.708;7.906;2023-05-07T02:40:45;96379.09;;;12.86;79.91
77207;BME280;66190;50.708;7.906;2023-05-07T02:43:11;96378.63;;;12.89;79.78
77207;BME280;66190;50.708;7.906;2023-05-07T02:45:36;96376.16;;;12.88;80.28
77207;BME280;66190;50.708;7.906;2023-05-07T02:48:03;96374.06;;;12.90;79.97
77207;BME280;66190;50.708;7.906;2023-05-07T02:50:28;96373.84;;;12.91;79.76
77207;BME280;66190;50.708;7.906;2023-05-07T02:52:54;96370.13;;;12.92;80.00
77207;BME280;66190;50.708;7.906;2023-05-07T02:55:20;96365.34;;;12.94;79.86
77207;BME280;66190;50.708;7.906;2023-05-07T02:57:45;96369.91;;;12.94;79.73
77207;BME280;66190;50.708;7.906;2023-05-07T03:00:15;96374.25;;;12.95;79.66
77207;BME280;66190;50.708;7.906;2023-05-07T03:02:41;96378.41;;;12.97;79.20
77207;BME280;66190;50.708;7.906;2023-05-07T03:05:06;96367.81;;;12.96;79.40
77207;BME280;66190;50.708;7.906;2023-05-07T03:07:32;96366.53;;;12.98;79.55
77207;BME280;66190;50.708;7.906;2023-05-07T03:09:58;96367.81;;;12.96;79.59
77207;BME280;66190;50.708;7.906;2023-05-07T03:12:23;96372.16;;;12.97;79.80
77207;BME280;66190;50.708;7.906;2023-05-07T03:14:48;96377.56;;;12.97;79.71
77207;BME280;66190;50.708;7.906;2023-05-07T03:17:13;96371.94;;;12.98;79.51
77207;BME280;66190;50.708;7.906;2023-05-07T03:19:39;96366.31;;;13.00;79.15
77207;BME280;66190;50.708;7.906;2023-05-07T03:22:04;96364.88;;;12.97;79.65
77207;BME280;66190;50.708;7.906;2023-05-07T03:24:30;96354.91;;;12.98;80.12
77207;BME280;66190;50.708;7.906;2023-05-07T03:26:56;96357.63;;;12.98;79.55
77207;BME280;66190;50.708;7.906;2023-05-07T03:29:23;96343.28;;;12.97;79.76
77207;BME280;66190;50.708;7.906;2023-05-07T03:31:48;96353.88;;;12.99;79.47
77207;BME280;66190;50.708;7.906;2023-05-07T03:34:13;96350.09;;;13.00;79.53
77207;BME280;66190;50.708;7.906;2023-05-07T03:36:39;96343.66;;;13.01;79.32
77207;BME280;66190;50.708;7.906;2023-05-07T03:39:04;96348.25;;;13.00;79.42
77207;BME280;66190;50.708;7.906;2023-05-07T03:41:30;96349.06;;;13.01;79.33
77207;BME280;66190;50.708;7.906;2023-05-07T03:43:55;96346.38;;;13.01;79.55
77207;BME280;66190;50.708;7.906;2023-05-07T03:46:20;96344.09;;;13.04;78.79
77207;BME280;66190;50.708;7.906;2023-05-07T03:48:46;96350.34;;;13.05;79.45
77207;BME280;66190;50.708;7.906;2023-05-07T03:51:11;96344.69;;;13.06;79.19
77207;BME280;66190;50.708;7.906;2023-05-07T03:53:37;96346.56;;;13.06;79.23
77207;BME280;66190;50.708;7.906;2023-05-07T03:56:02;96355.72;;;13.05;79.44
77207;BME280;66190;50.708;7.906;2023-05-07T03:58:27;96357.16;;;13.07;79.06
77207;BME280;66190;50.708;7.906;2023-05-07T04:00:53;96359.63;;;13.09;78.80
77207;BME280;66190;50.708;7.906;2023-05-07T04:03:18;96363.78;;;13.11;78.82
77207;BME280;66190;50.708;7.906;2023-05-07T04:05:44;96365.03;;;13.09;79.25
77207;BME280;66190;50.708;7.906;2023-05-07T04:08:09;96365.84;;;13.09;79.09
77207;BME280;66190;50.708;7.906;2023-05-07T04:10:35;96364.41;;;13.07;78.82
77207;BME280;66190;50.708;7.906;2023-05-07T04:13:00;96365.47;;;13.06;79.59
77207;BME280;66190;50.708;7.906;2023-05-07T04:15:25;96370.03;;;13.05;79.48
77207;BME280;66190;50.708;7.906;2023-05-07T04:17:51;96366.53;;;13.05;79.39
77207;BME280;66190;50.708;7.906;2023-05-07T04:20:17;96372.75;;;13.05;78.98
77207;BME280;66190;50.708;7.906;2023-05-07T04:22:43;96373.56;;;13.06;79.13
77207;BME280;66190;50.708;7.906;2023-05-07T04:25:09;96381.69;;;13.06;78.91
77207;BME280;66190;50.708;7.906;2023-05-07T04:27:35;96374.41;;;13.06;79.56
77207;BME280;66190;50.708;7.906;2023-05-07T04:30:01;96379.59;;;13.08;79.16
77207;BME280;66190;50.708;7.906;2023-05-07T04:32:27;96371.94;;;13.05;79.35
77207;BME280;66190;50.708;7.906;2023-05-07T04:34:54;96374.63;;;13.05;79.39
77207;BME280;66190;50.708;7.906;2023-05-07T04:37:20;96388.94;;;13.05;79.25
77207;BME280;66190;50.708;7.906;2023-05-07T04:39:46;96370.88;;;13.06;78.02
77207;BME280;66190;50.708;7.906;2023-05-07T04:42:15;96380.84;;;13.05;78.07
77207;BME280;66190;50.708;7.906;2023-05-07T04:44:40;96372.75;;;13.05;78.27
77207;BME280;66190;50.708;7.906;2023-05-07T04:47:06;96374.81;;;13.10;78.47
77207;BME280;66190;50.708;7.906;2023-05-07T04:49:31;96373.97;;;13.09;79.47
77207;BME280;66190;50.708;7.906;2023-05-07T04:51:56;96379.16;;;13.11;79.98
77207;BME280;66190;50.708;7.906;2023-05-07T04:54:22;96378.91;;;13.12;80.30
77207;BME280;66190;50.708;7.906;2023-05-07T04:56:47;96385.78;;;13.15;79.40
77207;BME280;66190;50.708;7.906;2023-05-07T04:59:13;96381.56;;;13.19;79.84
77207;BME280;66190;50.708;7.906;2023-05-07T05:01:38;96385.72;;;13.21;79.67
77207;BME280;66190;50.708;7.906;2023-05-07T05:04:03;96392.75;;;13.22;79.89
77207;BME280;66190;50.708;7.906;2023-05-07T05:06:29;96386.94;;;13.25;79.69
77207;BME280;66190;50.708;7.906;2023-05-07T05:08:54;96398.13;;;13.29;80.74
77207;BME280;66190;50.708;7.906;2023-05-07T05:11:20;96394.13;;;13.31;79.24
77207;BME280;66190;50.708;7.906;2023-05-07T05:13:46;96395.34;;;13.35;80.20
77207;BME280;66190;50.708;7.906;2023-05-07T05:16:14;96395.53;;;13.40;79.50
77207;BME280;66190;50.708;7.906;2023-05-07T05:18:39;96405.88;;;13.43;79.22
77207;BME280;66190;50.708;7.906;2023-05-07T05:21:05;96401.69;;;13.47;79.09
77207;BME280;66190;50.708;7.906;2023-05-07T05:23:30;96406.66;;;13.50;80.05
77207;BME280;66190;50.708;7.906;2023-05-07T05:25:57;96404.31;;;13.54;80.16
77207;BME280;66190;50.708;7.906;2023-05-07T05:28:25;96404.72;;;13.57;79.81
77207;BME280;66190;50.708;7.906;2023-05-07T05:30:50;96401.38;;;13.62;79.89
77207;BME280;66190;50.708;7.906;2023-05-07T05:33:16;96399.84;;;13.66;79.21
77207;BME280;66190;50.708;7.906;2023-05-07T05:35:42;96406.25;;;13.72;79.99
77207;BME280;66190;50.708;7.906;2023-05-07T05:38:07;96403.31;;;13.73;80.77
77207;BME280;66190;50.708;7.906;2023-05-07T05:40:33;96397.91;;;13.73;81.49
77207;BME280;66190;50.708;7.906;2023-05-07T05:42:58;96397.28;;;13.71;82.37
77207;BME280;66190;50.708;7.906;2023-05-07T05:45:24;96396.88;;;13.74;82.44
77207;BME280;66190;50.708;7.906;2023-05-07T05:47:49;96399.97;;;13.78;83.38
77207;BME280;66190;50.708;7.906;2023-05-07T05:50:15;96396.56;;;13.82;82.11
77207;BME280;66190;50.708;7.906;2023-05-07T05:52:40;96403.78;;;13.88;82.35
77207;BME280;66190;50.708;7.906;2023-05-07T05:55:06;96401.47;;;13.92;81.82
77207;BME280;66190;50.708;7.906;2023-05-07T05:57:32;96402.44;;;13.97;82.33
77207;BME280;66190;50.708;7.906;2023-05-07T05:59:57;96401.78;;;14.02;81.88
77207;BME280;66190;50.708;7.906;2023-05-07T06:02:23;96410.63;;;14.09;81.61
77207;BME280;66190;50.708;7.906;2023-05-07T06:04:48;96403.72;;;14.13;83.87
77207;BME280;66190;50.708;7.906;2023-05-07T06:07:14;96408.00;;;14.20;82.86
77207;BME280;66190;50.708;7.906;2023-05-07T06:09:39;96406.91;;;14.28;83.35
77207;BME280;66190;50.708;7.906;2023-05-07T06:12:05;96416.81;;;14.34;82.67
77207;BME280;66190;50.708;7.906;2023-05-07T06:14:31;96407.56;;;14.41;82.32
77207;BME280;66190;50.708;7.906;2023-05-07T06:16:56;96411.84;;;14.49;82.31
77207;BME280;66190;50.708;7.906;2023-05-07T06:19:22;96412.78;;;14.54;82.46
77207;BME280;66190;50.708;7.906;2023-05-07T06:21:49;96421.53;;;14.56;82.85
77207;BME280;66190;50.708;7.906;2023-05-07T06:24:14;96415.31;;;14.56;82.17
77207;BME280;66190;50.708;7.906;2023-05-07T06:26:40;96422.72;;;14.60;81.81
77207;BME280;66190;50.708;7.906;2023-05-07T06:29:06;96418.72;;;14.63;81.66
77207;BME280;66190;50.708;7.906;2023-05-07T06:31:31;96419.78;;;14.62;82.10
77207;BME280;66190;50.708;7.906;2023-05-07T06:33:59;96427.81;;;14.68;81.47
77207;BME280;66190;50.708;7.906;2023-05-07T06:36:25;96423.22;;;14.69;82.08
77207;BME280;66190;50.708;7.906;2023-05-07T06:38:51;96427.38;;;14.71;81.59
77207;BME280;66190;50.708;7.906;2023-05-07T06:41:16;96424.44;;;14.73;81.88
77207;BME280;66190;50.708;7.906;2023-05-07T06:43:42;96429.38;;;14.76;80.82
77207;BME280;66190;50.708;7.906;2023-05-07T06:46:07;96435.31;;;14.85;81.32
77207;BME280;66190;50.708;7.906;2023-05-07T06:48:35;96431.69;;;14.91;80.84
77207;BME280;66190;50.708;7.906;2023-05-07T06:51:00;96438.16;;;14.90;80.04
77207;BME280;66190;50.708;7.906;2023-05-07T06:53:26;96442.53;;;14.91;79.68
77207;BME280;66190;50.708;7.906;2023-05-07T06:55:51;96449.72;;;14.97;79.38
77207;BME280;66190;50.708;7.906;2023-05-07T06:58:17;96442.66;;;14.96;78.51
77207;BME280;66190;50.708;7.906;2023-05-07T07:00:42;96454.31;;;14.96;78.54
77207;BME280;66190;50.708;7.906;2023-05-07T07:03:08;96454.25;;;15.03;79.36
77207;BME280;66190;50.708;7.906;2023-05-07T07:05:33;96452.09;;;15.05;78.25
77207;BME280;66190;50.708;7.906;2023-05-07T07:07:58;96452.84;;;15.12;77.96
77207;BME280;66190;50.708;7.906;2023-05-07T07:10:24;96459.78;;;15.08;77.19
77207;BME280;66190;50.708;7.906;2023-05-07T07:12:50;96448.25;;;15.12;77.74
77207;BME280;66190;50.708;7.906;2023-05-07T07:15:16;96456.16;;;15.14;77.33
77207;BME280;66190;50.708;7.906;2023-05-07T07:17:41;96447.34;;;15.18;77.40
77207;BME280;66190;50.708;7.906;2023-05-07T07:20:07;96452.75;;;15.18;77.15
77207;BME280;66190;50.708;7.906;2023-05-07T07:22:32;96453.13;;;15.22;78.44
77207;BME280;66190;50.708;7.906;2023-05-07T07:24:58;96446.75;;;15.28;77.48
77207;BME280;66190;50.708;7.906;2023-05-07T07:27:23;96450.91;;;15.30;77.67
77207;BME280;66190;50.708;7.906;2023-05-07T07:29:49;96451.63;;;15.37;77.94
77207;BME280;66190;50.708;7.906;2023-05-07T07:32:14;96442.22;;;15.40;76.88
77207;BME280;66190;50.708;7.906;2023-05-07T07:34:40;96448.97;;;15.49;77.53
77207;BME280;66190;50.708;7.906;2023-05-07T07:37:05;96449.91;;;15.54;76.83
77207;BME280;66190;50.708;7.906;2023-05-07T07:39:34;96441.31;;;15.57;76.01
77207;BME280;66190;50.708;7.906;2023-05-07T07:42:00;96445.22;;;15.61;76.10
77207;BME280;66190;50.708;7.906;2023-05-07T07:44:26;96442.97;;;15.70;75.17
77207;BME280;66190;50.708;7.906;2023-05-07T07:46:52;96449.72;;;15.79;76.00
77207;BME280;66190;50.708;7.906;2023-05-07T07:49:17;96449.59;;;15.85;74.47
77207;BME280;66190;50.708;7.906;2023-05-07T07:51:43;96449.00;;;15.95;74.35
77207;BME280;66190;50.708;7.906;2023-05-07T07:54:08;96456.31;;;16.06;73.84
77207;BME280;66190;50.708;7.906;2023-05-07T07:56:34;96452.28;;;16.20;74.02
77207;BME280;66190;50.708;7.906;2023-05-07T07:58:59;96458.78;;;16.31;73.54
77207;BME280;66190;50.708;7.906;2023-05-07T08:01:25;96452.28;;;16.43;73.15
77207;BME280;66190;50.708;7.906;2023-05-07T08:03:51;96458.44;;;16.50;72.40
77207;BME280;66190;50.708;7.906;2023-05-07T08:06:16;96460.97;;;16.68;73.34
77207;BME280;66190;50.708;7.906;2023-05-07T08:08:41;96456.13;;;16.70;71.96
77207;BME280;66190;50.708;7.906;2023-05-07T08:11:07;96454.78;;;16.84;72.82
77207;BME280;66190;50.708;7.906;2023-05-07T08:13:32;96456.75;;;16.89;72.08
77207;BME280;66190;50.708;7.906;2023-05-07T08:15:58;96453.53;;;17.03;71.99
77207;BME280;66190;50.708;7.906;2023-05-07T08:18:23;96452.06;;;17.13;69.32
77207;BME280;66190;50.708;7.906;2023-05-07T08:20:50;96457.09;;;17.21;68.41
77207;BME280;66190;50.708;7.906;2023-05-07T08:23:15;96458.03;;;17.26;69.09
77207;BME280;66190;50.708;7.906;2023-05-07T08:25:41;96463.91;;;17.35;69.34
77207;BME280;66190;50.708;7.906;2023-05-07T08:28:07;96461.34;;;17.45;69.15
77207;BME280;66190;50.708;7.906;2023-05-07T08:30:33;96453.44;;;17.43;68.45
77207;BME280;66190;50.708;7.906;2023-05-07T08:32:59;96461.13;;;17.46;68.82
77207;BME280;66190;50.708;7.906;2023-05-07T08:35:25;96464.06;;;17.45;67.36
77207;BME280;66190;50.708;7.906;2023-05-07T08:37:51;96473.91;;;17.46;67.08
77207;BME280;66190;50.708;7.906;2023-05-07T08:40:17;96476.03;;;17.44;66.51
77207;BME280;66190;50.708;7.906;2023-05-07T08:42:44;96478.75;;;17.44;67.86
77207;BME280;66190;50.708;7.906;2023-05-07T08:45:10;96472.47;;;17.43;67.08
77207;BME280;66190;50.708;7.906;2023-05-07T08:47:52;96472.94;;;17.52;67.62
77207;BME280;66190;50.708;7.906;2023-05-07T08:50:20;96466.69;;;17.51;66.80
77207;BME280;66190;50.708;7.906;2023-05-07T08:52:45;96465.94;;;17.56;65.84
77207;BME280;66190;50.708;7.906;2023-05-07T08:55:12;96462.81;;;17.64;67.47
77207;BME280;66190;50.708;7.906;2023-05-07T08:57:37;96464.63;;;17.75;66.28
77207;BME280;66190;50.708;7.906;2023-05-07T09:00:04;96472.53;;;17.76;65.08
77207;BME280;66190;50.708;7.906;2023-05-07T09:02:32;96470.06;;;17.75;64.24
77207;BME280;66190;50.708;7.906;2023-05-07T09:04:58;96471.50;;;17.77;64.63
77207;BME280;66190;50.708;7.906;2023-05-07T09:07:23;96470.41;;;17.78;64.84
77207;BME280;66190;50.708;7.906;2023-05-07T09:09:50;96470.06;;;17.75;65.92
77207;BME280;66190;50.708;7.906;2023-05-07T09:12:15;96470.06;;;17.75;66.33
77207;BME280;66190;50.708;7.906;2023-05-07T09:14:40;96474.50;;;17.81;64.84
77207;BME280;66190;50.708;7.906;2023-05-07T09:17:06;96472.22;;;17.89;65.56
77207;BME280;66190;50.708;7.906;2023-05-07T09:19:31;96473.94;;;17.95;64.88
77207;BME280;66190;50.708;7.906;2023-05-07T09:22:00;96470.00;;;18.03;65.25
77207;BME280;66190;50.708;7.906;2023-05-07T09:24:26;96465.13;;;18.05;65.17
77207;BME280;66190;50.708;7.906;2023-05-07T09:26:53;96468.06;;;18.20;66.74
77207;BME280;66190;50.708;7.906;2023-05-07T09:29:20;96472.44;;;18.21;62.16
77207;BME280;66190;50.708;7.906;2023-05-07T09:31:46;96465.84;;;18.17;63.88
77207;BME280;66190;50.708;7.906;2023-05-07T09:34:11;96459.19;;;18.30;63.64
77207;BME280;66190;50.708;7.906;2023-05-07T09:36:36;96466.97;;;18.38;63.63
77207;BME280;66190;50.708;7.906;2023-05-07T09:39:02;96466.94;;;18.54;62.30
77207;BME280;66190;50.708;7.906;2023-05-07T09:41:30;96464.59;;;18.63;62.87
77207;BME280;66190;50.708;7.906;2023-05-07T09:43:56;96470.75;;;18.75;64.78
77207;BME280;66190;50.708;7.906;2023-05-07T09:46:27;96466.00;;;18.87;64.82
77207;BME280;66190;50.708;7.906;2023-05-07T09:48:57;96460.16;;;19.00;62.82
77207;BME280;66190;50.708;7.906;2023-05-07T09:51:32;96465.06;;;18.98;63.43
77207;BME280;66190;50.708;7.906;2023-05-07T09:54:00;96460.22;;;19.05;63.89
77207;BME280;66190;50.708;7.906;2023-05-07T09:56:29;96461.31;;;19.04;62.53
77207;BME280;66190;50.708;7.906;2023-05-07T09:58:56;96475.44;;;19.22;64.49
77207;BME280;66190;50.708;7.906;2023-05-07T10:01:25;96465.47;;;19.33;61.57
77207;BME280;66190;50.708;7.906;2023-05-07T10:03:51;96463.06;;;19.37;61.41
77207;BME280;66190;50.708;7.906;2023-05-07T10:06:19;96465.31;;;19.45;61.11
77207;BME280;66190;50.708;7.906;2023-05-07T10:08:45;96470.88;;;19.55;59.83
77207;BME280;66190;50.708;7.906;2023-05-07T10:11:11;96466.25;;;19.55;59.17
77207;BME280;66190;50.708;7.906;2023-05-07T10:13:37;96465.78;;;19.63;59.83
77207;BME280;66190;50.708;7.906;2023-05-07T10:16:04;96466.84;;;19.62;59.82
77207;BME280;66190;50.708;7.906;2023-05-07T10:18:33;96459.94;;;19.81;57.37
77207;BME280;66190;50.708;7.906;2023-05-07T10:21:11;96466.91;;;19.67;56.14
77207;BME280;66190;50.708;7.906;2023-05-07T10:23:45;96464.53;;;19.76;60.20
77207;BME280;66190;50.708;7.906;2023-05-07T10:26:14;96461.03;;;19.80;57.50
77207;BME280;66190;50.708;7.906;2023-05-07T10:28:44;96459.88;;;20.08;58.18
77207;BME280;66190;50.708;7.906;2023-05-07T10:33:46;96451.91;;;20.38;58.55
77207;BME280;66190;50.708;7.906;2023-05-07T10:36:14;96456.84;;;20.36;55.86
77207;BME280;66190;50.708;7.906;2023-05-07T10:38:39;96453.00;;;20.37;57.98
77207;BME280;66190;50.708;7.906;2023-05-07T10:41:06;96451.38;;;20.36;57.63
77207;BME280;66190;50.708;7.906;2023-05-07T10:43:39;96452.72;;;20.39;56.85
77207;BME280;66190;50.708;7.906;2023-05-07T10:51:27;96454.38;;;20.35;57.18
77207;BME280;66190;50.708;7.906;2023-05-07T10:56:40;96452.53;;;20.50;55.46
77207;BME280;66190;50.708;7.906;2023-05-07T11:01:59;96448.59;;;20.31;55.92
77207;BME280;66190;50.708;7.906;2023-05-07T11:04:25;96459.66;;;20.14;56.42
77207;BME280;66190;50.708;7.906;2023-05-07T11:10:00;96454.31;;;19.93;56.75
77207;BME280;66190;50.708;7.906;2023-05-07T11:15:15;96458.00;;;19.77;57.05
77207;BME280;66190;50.708;7.906;2023-05-07T11:17:58;96450.53;;;19.67;58.23
77207;BME280;66190;50.708;7.906;2023-05-07T11:20:46;96444.25;;;19.67;56.29
77207;BME280;66190;50.708;7.906;2023-05-07T11:28:30;96464.13;;;19.62;57.78
77207;BME280;66190;50.708;7.906;2023-05-07T11:30:56;96452.00;;;19.80;59.08
77207;BME280;66190;50.708;7.906;2023-05-07T11:33:22;96443.00;;;19.84;59.92
77207;BME280;66190;50.708;7.906;2023-05-07T11:35:51;96449.38;;;19.95;60.63
77207;BME280;66190;50.708;7.906;2023-05-07T11:38:18;96448.31;;;19.96;57.88
77207;BME280;66190;50.708;7.906;2023-05-07T11:40:54;96444.19;;;19.93;56.75
77207;BME280;66190;50.708;7.906;2023-05-07T11:43:20;96445.00;;;19.94;54.73
77207;BME280;66190;50.708;7.906;2023-05-07T11:45:47;96445.50;;;19.86;58.54
77207;BME280;66190;50.708;7.906;2023-05-07T11:48:13;96443.28;;;19.83;56.30
77207;BME280;66190;50.708;7.906;2023-05-07T11:51:03;96441.03;;;19.75;55.36
77207;BME280;66190;50.708;7.906;2023-05-07T11:53:41;96437.81;;;19.83;56.48
77207;BME280;66190;50.708;7.906;2023-05-07T11:56:23;96440.69;;;19.98;55.92
77207;BME280;66190;50.708;7.906;2023-05-07T11:58:51;96451.78;;;20.18;58.66
77207;BME280;66190;50.708;7.906;2023-05-07T12:01:17;96443.88;;;20.21;56.27
77207;BME280;66190;50.708;7.906;2023-05-07T12:03:44;96439.53;;;20.25;55.60
77207;BME280;66190;50.708;7.906;2023-05-07T12:06:11;96447.88;;;20.51;56.69
77207;BME280;66190;50.708;7.906;2023-05-07T12:08:39;96443.03;;;20.63;56.01
77207;BME280;66190;50.708;7.906;2023-05-07T12:11:08;96439.78;;;20.71;55.32
77207;BME280;66190;50.708;7.906;2023-05-07T12:13:35;96437.97;;;20.91;57.59
77207;BME280;66190;50.708;7.906;2023-05-07T12:16:01;96439.94;;;21.06;55.60
77207;BME280;66190;50.708;7.906;2023-05-07T12:18:28;96440.50;;;21.03;55.09
77207;BME280;66190;50.708;7.906;2023-05-07T12:20:54;96444.00;;;20.93;54.03
77207;BME280;66190;50.708;7.906;2023-05-07T12:23:20;96439.31;;;20.94;53.51
77207;BME280;66190;50.708;7.906;2023-05-07T12:25:45;96442.34;;;20.92;53.40
77207;BME280;66190;50.708;7.906;2023-05-07T12:28:17;96444.22;;;20.87;52.96
77207;BME280;66190;50.708;7.906;2023-05-07T12:30:45;96445.88;;;20.88;53.47
77207;BME280;66190;50.708;7.906;2023-05-07T12:33:18;96452.81;;;21.00;53.34
77207;BME280;66190;50.708;7.906;2023-05-07T12:35:47;96441.09;;;21.20;54.48
77207;BME280;66190;50.708;7.906;2023-05-07T12:38:14;96440.84;;;21.31;54.44
77207;BME280;66190;50.708;7.906;2023-05-07T12:40:45;96443.88;;;21.45;54.01
77207;BME280;66190;50.708;7.906;2023-05-07T12:43:24;96447.47;;;21.46;53.68
77207;BME280;66190;50.708;7.906;2023-05-07T12:45:51;96457.28;;;21.36;53.26
77207;BME280;66190;50.708;7.906;2023-05-07T12:48:17;96444.41;;;21.32;51.79
77207;BME280;66190;50.708;7.906;2023-05-07T12:50:42;96447.47;;;21.40;52.78
77207;BME280;66190;50.708;7.906;2023-05-07T12:53:10;96445.56;;;21.56;54.00
77207;BME280;66190;50.708;7.906;2023-05-07T12:55:53;96450.25;;;21.81;55.19
77207;BME280;66190;50.708;7.906;2023-05-07T12:58:21;96449.16;;;21.97;53.63
77207;BME280;66190;50.708;7.906;2023-05-07T13:00:49;96442.31;;;22.04;53.25
77207;BME280;66190;50.708;7.906;2023-05-07T13:03:32;96438.75;;;22.04;52.00
77207;BME280;66190;50.708;7.906;2023-05-07T13:06:01;96442.06;;;21.86;52.14
77207;BME280;66190;50.708;7.906;2023-05-07T13:08:41;96437.06;;;21.68;52.12
77207;BME280;66190;50.708;7.906;2023-05-07T13:11:10;96447.47;;;21.51;52.31
77207;BME280;66190;50.708;7.906;2023-05-07T13:13:37;96453.44;;;21.32;54.00
77207;BME280;66190;50.708;7.906;2023-05-07T13:16:04;96449.06;;;21.21;54.47
77207;BME280;66190;50.708;7.906;2023-05-07T13:18:31;96443.25;;;21.08;56.86
77207;BME280;66190;50.708;7.906;2023-05-07T13:20:57;96456.00;;;20.92;54.81